Time;durP1;ratioP1;P1;durP2;ratioP2;P2;SDS_P1;SDS_P2;PMS_P1;PMS_P2;Temp;Humidity;BMP_temperature;BMP_pressure;BME280_temperature;BME280_humidity;BME280_pressure;Samples;Min_cycle;Max_cycle;Signal;HPM_P1;HPM_P2
2022/10/08 00:01:12;;;;;;;36.00;25.90;;;14.00;99.90;;;;;;5095715;28;20424;-68
2022/10/08 00:03:40;;;;;;;25.73;20.17;;;14.00;99.90;;;;;;5094625;28;20479;-69
2022/10/08 00:06:16;;;;;;;27.73;21.83;;;13.90;99.90;;;;;;5094296;28;20560;-68
2022/10/08 00:08:46;;;;;;;25.33;20.63;;;13.90;99.90;;;;;;5093972;28;20451;-69
2022/10/08 00:11:15;;;;;;;27.40;20.80;;;13.90;99.90;;;;;;5095454;28;20425;-69
2022/10/08 00:13:43;;;;;;;25.50;20.20;;;13.80;99.90;;;;;;5096025;28;20524;-69
2022/10/08 00:16:15;;;;;;;25.27;20.63;;;13.80;99.90;;;;;;5095379;28;20429;-69
2022/10/08 00:18:43;;;;;;;28.33;20.40;;;13.70;99.90;;;;;;5096047;28;20902;-69
2022/10/08 00:21:22;;;;;;;21.97;18.60;;;13.70;99.90;;;;;;5095329;28;20925;-69
2022/10/08 00:23:49;;;;;;;20.23;16.80;;;13.60;99.90;;;;;;5123216;27;20959;-69
2022/10/08 00:26:17;;;;;;;24.03;19.70;;;13.60;99.90;;;;;;5136110;27;20963;-69
2022/10/08 00:28:44;;;;;;;28.73;18.90;;;13.60;99.90;;;;;;5117782;27;20781;-69
2022/10/08 00:31:15;;;;;;;27.43;19.90;;;13.50;99.90;;;;;;5136024;27;20434;-69
2022/10/08 00:33:41;;;;;;;21.33;17.80;;;13.50;99.90;;;;;;5136612;27;20418;-69
2022/10/08 00:36:10;;;;;;;26.37;20.50;;;13.50;99.90;;;;;;5136005;27;20419;-69
2022/10/08 00:38:37;;;;;;;25.83;20.17;;;13.50;99.90;;;;;;5117774;27;20218;-69
2022/10/08 00:41:05;;;;;;;26.40;18.90;;;13.40;99.90;;;;;;5135783;27;20510;-68
2022/10/08 00:43:47;;;;;;;29.33;20.20;;;13.40;99.90;;;;;;5117645;27;20844;-69
2022/10/08 00:46:21;;;;;;;24.87;18.70;;;13.40;99.90;;;;;;5135605;27;20469;-69
2022/10/08 00:48:48;;;;;;;25.83;19.07;;;13.30;99.90;;;;;;5136287;27;20423;-69
2022/10/08 00:51:14;;;;;;;22.40;18.47;;;13.30;99.90;;;;;;5135668;27;20967;-69
2022/10/08 00:53:39;;;;;;;23.53;18.70;;;13.20;99.90;;;;;;5136131;27;20484;-69
2022/10/08 00:56:05;;;;;;;22.40;17.97;;;13.20;99.90;;;;;;5117078;27;20548;-69
2022/10/08 00:58:32;;;;;;;25.77;18.57;;;13.20;99.90;;;;;;5135910;27;20179;-69
2022/10/08 01:00:58;;;;;;;21.33;17.37;;;13.20;99.90;;;;;;5116976;27;20244;-69
2022/10/08 01:03:23;;;;;;;22.83;17.90;;;13.20;99.90;;;;;;5135892;27;20915;-69
2022/10/08 01:05:59;;;;;;;21.77;18.40;;;13.20;99.90;;;;;;5135361;27;20507;-69
2022/10/08 01:08:45;;;;;;;24.20;17.07;;;13.10;99.90;;;;;;5135846;27;20170;-69
2022/10/08 01:11:29;;;;;;;20.83;18.00;;;13.10;99.90;;;;;;5135235;27;20431;-69
2022/10/08 01:14:00;;;;;;;24.10;18.40;;;13.10;99.90;;;;;;5117072;27;20954;-68
2022/10/08 01:16:39;;;;;;;22.00;18.90;;;13.10;99.90;;;;;;5135305;27;20946;-69
2022/10/08 01:19:21;;;;;;;24.70;19.10;;;13.10;99.90;;;;;;5116113;27;20927;-69
2022/10/08 01:22:11;;;;;;;20.47;18.27;;;13.00;99.90;;;;;;5135241;27;20802;-69
2022/10/08 01:27:38;;;;;;;25.20;17.97;;;12.90;99.90;;;;;;5135579;27;20434;-69
2022/10/08 01:30:08;;;;;;;22.03;18.33;;;12.90;99.90;;;;;;5135030;27;20418;-69
2022/10/08 01:32:39;;;;;;;22.53;17.70;;;12.90;99.90;;;;;;5135217;27;20423;-69
2022/10/08 01:35:27;;;;;;;24.50;18.63;;;12.90;99.90;;;;;;5134953;27;20537;-69
2022/10/08 01:37:56;;;;;;;20.67;17.63;;;12.90;99.90;;;;;;5116474;28;20415;-69
2022/10/08 01:40:28;;;;;;;23.33;18.33;;;12.80;99.90;;;;;;5134848;27;20566;-68
2022/10/08 01:42:57;;;;;;;20.40;17.87;;;12.70;99.90;;;;;;5135274;27;20815;-69
2022/10/08 01:45:31;;;;;;;22.07;17.80;;;12.70;99.90;;;;;;5134802;27;20453;-69
2022/10/08 01:48:00;;;;;;;21.63;17.77;;;12.70;99.90;;;;;;5135117;27;20400;-69
2022/10/08 01:50:32;;;;;;;20.53;15.90;;;12.70;99.90;;;;;;5134890;27;20448;-69
2022/10/08 01:53:03;;;;;;;22.87;17.63;;;12.60;99.90;;;;;;5116457;28;20919;-69
2022/10/08 01:55:37;;;;;;;25.00;18.60;;;12.60;99.90;;;;;;5116317;27;20438;-69
2022/10/08 01:58:08;;;;;;;23.23;17.73;;;12.60;99.90;;;;;;5116377;28;20936;-69
2022/10/08 02:00:36;;;;;;;20.80;17.70;;;12.60;99.90;;;;;;5134651;27;20453;-68
2022/10/08 02:03:02;;;;;;;22.93;18.03;;;12.60;99.90;;;;;;5134899;28;20833;-69
2022/10/08 02:05:32;;;;;;;21.10;16.70;;;12.50;99.90;;;;;;5116119;28;20462;-69
2022/10/08 02:07:59;;;;;;;23.67;17.10;;;12.50;99.90;;;;;;5134851;28;20414;-68
2022/10/08 02:10:25;;;;;;;19.23;17.17;;;12.50;99.90;;;;;;5134665;27;20419;-69
2022/10/08 02:12:51;;;;;;;22.47;18.07;;;12.50;99.90;;;;;;5134795;28;20404;-68
2022/10/08 02:15:22;;;;;;;21.67;17.20;;;12.50;99.90;;;;;;5134503;27;20709;-69
2022/10/08 02:18:14;;;;;;;17.43;15.30;;;12.50;99.90;;;;;;5134797;28;20423;-69
2022/10/08 02:21:07;;;;;;;20.03;16.50;;;12.50;99.90;;;;;;5082327;28;20450;-68
2022/10/08 02:23:45;;;;;;;20.37;16.80;;;12.40;99.90;;;;;;5116092;28;21001;-69
2022/10/08 02:26:18;;;;;;;22.80;16.00;;;12.40;99.90;;;;;;5134348;27;20462;-69
2022/10/08 02:28:51;;;;;;;17.13;14.70;;;12.40;99.90;;;;;;5134325;28;20423;-68
2022/10/08 02:31:24;;;;;;;19.13;16.00;;;12.40;99.90;;;;;;5118616;27;20438;-68
2022/10/08 02:33:56;;;;;;;22.03;15.97;;;12.40;99.90;;;;;;5138993;27;20418;-68
2022/10/08 02:36:27;;;;;;;18.27;15.13;;;12.40;99.90;;;;;;5138315;27;20455;-68
2022/10/08 02:39:00;;;;;;;20.87;15.93;;;12.40;99.90;;;;;;5138882;27;20467;-69
2022/10/08 02:41:55;;;;;;;22.17;18.27;;;12.40;99.90;;;;;;5138106;27;20415;-69
2022/10/08 02:44:33;;;;;;;25.63;19.23;;;12.40;99.90;;;;;;5119830;27;20415;-69
2022/10/08 02:47:03;;;;;;;21.03;17.50;;;12.40;99.90;;;;;;5138137;27;20457;-69
2022/10/08 02:49:33;;;;;;;21.63;18.63;;;12.30;99.90;;;;;;5138418;27;20371;-68
2022/10/08 02:52:01;;;;;;;26.60;19.13;;;12.30;99.90;;;;;;5119663;27;20487;-68
2022/10/08 02:54:32;;;;;;;23.07;16.57;;;12.30;99.90;;;;;;5138046;27;20919;-69
2022/10/08 02:57:16;;;;;;;20.03;15.93;;;12.20;99.90;;;;;;5138109;27;20407;-68
2022/10/08 02:59:42;;;;;;;18.77;16.77;;;12.20;99.90;;;;;;5137932;27;20415;-68
2022/10/08 03:02:10;;;;;;;18.20;16.13;;;12.20;99.90;;;;;;5137891;27;20884;-68
2022/10/08 03:04:49;;;;;;;17.37;15.67;;;12.10;99.90;;;;;;5137663;27;20427;-68
2022/10/08 03:07:15;;;;;;;21.00;15.00;;;12.10;99.90;;;;;;5137777;27;20974;-68
2022/10/08 03:09:47;;;;;;;19.73;16.23;;;12.10;99.90;;;;;;5137636;27;20434;-68
2022/10/08 03:12:13;;;;;;;21.70;16.50;;;12.00;99.90;;;;;;5137619;27;20750;-68
2022/10/08 03:14:42;;;;;;;21.23;15.93;;;12.00;99.90;;;;;;5137689;27;20426;-68
2022/10/08 03:17:10;;;;;;;19.90;16.17;;;12.00;99.90;;;;;;5119137;27;20274;-68
2022/10/08 03:19:35;;;;;;;20.00;16.13;;;11.90;99.90;;;;;;5137492;27;20996;-69
2022/10/08 03:22:02;;;;;;;17.70;15.80;;;11.90;99.90;;;;;;5119108;27;20399;-68
2022/10/08 03:24:28;;;;;;;21.40;16.70;;;11.90;99.90;;;;;;5137471;27;20250;-69
2022/10/08 03:26:54;;;;;;;18.40;14.87;;;11.90;99.90;;;;;;5137288;27;20551;-68
2022/10/08 03:29:19;;;;;;;18.73;16.30;;;11.90;99.90;;;;;;5137365;27;20403;-68
2022/10/08 03:31:49;;;;;;;20.70;16.10;;;11.90;99.90;;;;;;5118886;27;20182;-69
2022/10/08 03:34:14;;;;;;;19.50;16.40;;;11.90;99.90;;;;;;5137228;27;20178;-69
2022/10/08 03:36:40;;;;;;;18.73;15.43;;;11.90;99.90;;;;;;5137299;27;20482;-69
2022/10/08 03:39:05;;;;;;;16.50;14.53;;;11.90;99.90;;;;;;5137596;27;20580;-69
2022/10/08 03:41:31;;;;;;;16.10;14.40;;;11.90;99.90;;;;;;5117860;28;20198;-68
2022/10/08 03:43:58;;;;;;;17.00;13.33;;;11.90;99.90;;;;;;5137279;27;20522;-68
2022/10/08 03:46:23;;;;;;;16.77;14.98;;;11.90;99.90;;;;;;5136935;27;20211;-68
2022/10/08 03:48:49;;;;;;;18.43;14.87;;;11.90;99.90;;;;;;5137007;27;20225;-69
2022/10/08 03:51:16;;;;;;;18.33;14.10;;;11.90;99.90;;;;;;5136915;27;20415;-68
2022/10/08 03:53:43;;;;;;;17.85;13.60;;;11.80;99.90;;;;;;5137325;27;20175;-69
2022/10/08 03:56:18;;;;;;;15.23;13.73;;;11.80;99.90;;;;;;5118300;27;20191;-69
2022/10/08 03:58:44;;;;;;;15.83;13.17;;;11.80;99.90;;;;;;5137205;27;20905;-68
2022/10/08 04:01:15;;;;;;;15.90;14.23;;;11.80;99.90;;;;;;5136646;27;20915;-68
2022/10/08 04:03:41;;;;;;;18.60;13.90;;;11.70;99.90;;;;;;5137229;27;20274;-68
2022/10/08 04:06:07;;;;;;;14.68;13.23;;;11.70;99.90;;;;;;5118016;27;20580;-68
2022/10/08 04:08:34;;;;;;;16.10;13.70;;;11.70;99.90;;;;;;5136943;27;20178;-68
2022/10/08 04:11:04;;;;;;;16.33;14.30;;;11.70;99.90;;;;;;5136529;27;20324;-68
2022/10/08 04:13:30;;;;;;;23.40;14.32;;;11.60;99.90;;;;;;5136960;27;20244;-68
2022/10/08 04:16:00;;;;;;;16.63;13.67;;;11.60;99.90;;;;;;5136293;27;20274;-68
2022/10/08 04:18:26;;;;;;;16.05;14.32;;;11.60;99.90;;;;;;5136424;27;20217;-68
2022/10/08 04:20:57;;;;;;;14.37;12.87;;;11.50;99.90;;;;;;5117869;27;20687;-68
2022/10/08 04:23:23;;;;;;;16.65;14.23;;;11.50;99.90;;;;;;5136394;27;20706;-69
2022/10/08 04:25:53;;;;;;;17.90;14.60;;;11.50;99.90;;;;;;5136255;27;20195;-68
2022/10/08 04:28:19;;;;;;;20.98;16.95;;;11.50;99.90;;;;;;5117848;27;20435;-68
2022/10/08 04:31:11;;;;;;;23.23;15.23;;;11.50;99.90;;;;;;5136192;27;20203;-69
2022/10/08 04:33:37;;;;;;;14.93;13.43;;;11.50;99.90;;;;;;5136562;27;20538;-68
2022/10/08 04:36:11;;;;;;;15.73;13.83;;;11.50;99.90;;;;;;5135931;27;20188;-68
2022/10/08 04:38:37;;;;;;;20.45;16.85;;;11.50;99.90;;;;;;5136419;27;20818;-68
2022/10/08 04:41:07;;;;;;;16.20;13.40;;;11.50;99.90;;;;;;5135855;27;20191;-68
2022/10/08 04:43:34;;;;;;;15.65;13.68;;;11.50;99.90;;;;;;5136148;27;20533;-68
2022/10/08 04:45:59;;;;;;;19.35;13.27;;;11.50;99.90;;;;;;5135691;27;20209;-69
2022/10/08 04:48:28;;;;;;;16.67;13.60;;;11.50;99.90;;;;;;5136218;27;20175;-68
2022/10/08 04:50:59;;;;;;;16.75;13.55;;;11.50;99.90;;;;;;5117189;27;20569;-69
2022/10/08 04:53:25;;;;;;;18.35;13.70;;;11.60;99.90;;;;;;5135896;27;20178;-69
2022/10/08 04:55:52;;;;;;;17.50;13.70;;;11.60;99.90;;;;;;5117205;27;20199;-69
2022/10/08 04:58:17;;;;;;;17.77;13.95;;;11.60;99.90;;;;;;5135896;27;20456;-69
2022/10/08 05:00:43;;;;;;;18.40;13.83;;;11.60;99.90;;;;;;5135581;27;20183;-69
2022/10/08 05:03:09;;;;;;;23.67;15.23;;;11.60;99.90;;;;;;5135784;27;20186;-68
2022/10/08 05:05:41;;;;;;;20.83;15.73;;;11.70;99.90;;;;;;5135351;27;20542;-68
2022/10/08 05:08:07;;;;;;;20.77;14.18;;;11.70;99.90;;;;;;5135736;27;20414;-69
2022/10/08 05:10:33;;;;;;;17.20;14.80;;;11.80;99.90;;;;;;5116931;27;20659;-69
2022/10/08 05:12:59;;;;;;;18.97;15.03;;;11.80;99.90;;;;;;5135229;27;20502;-69
2022/10/08 05:15:25;;;;;;;19.77;14.57;;;11.80;99.90;;;;;;5116867;27;20469;-69
2022/10/08 05:17:50;;;;;;;20.07;14.63;;;11.80;99.90;;;;;;5135467;27;20397;-69
2022/10/08 05:20:16;;;;;;;21.33;15.13;;;11.90;99.90;;;;;;5135116;27;20211;-69
2022/10/08 05:22:42;;;;;;;18.73;15.97;;;11.90;99.90;;;;;;5134964;27;20283;-69
2022/10/08 05:25:08;;;;;;;20.57;15.67;;;11.90;99.90;;;;;;5116523;27;20187;-69
2022/10/08 05:27:33;;;;;;;22.80;18.03;;;12.00;99.90;;;;;;5135118;27;20189;-69
2022/10/08 05:29:59;;;;;;;19.07;15.67;;;12.00;99.90;;;;;;5135005;27;20483;-68
2022/10/08 05:32:24;;;;;;;21.10;15.60;;;12.00;99.90;;;;;;5116671;27;20175;-69
2022/10/08 05:34:50;;;;;;;17.40;15.00;;;12.10;99.90;;;;;;5116549;27;20194;-69
2022/10/08 05:37:15;;;;;;;18.50;14.70;;;12.10;99.90;;;;;;5134987;27;20285;-69
2022/10/08 05:39:41;;;;;;;16.73;13.17;;;12.20;99.90;;;;;;5116458;27;20187;-69
2022/10/08 05:42:06;;;;;;;16.40;13.27;;;12.20;99.90;;;;;;5134959;27;20185;-69
2022/10/08 05:44:32;;;;;;;19.90;14.40;;;12.30;99.90;;;;;;5134852;27;20677;-69
2022/10/08 05:46:58;;;;;;;20.60;15.20;;;12.30;99.90;;;;;;5134737;27;20226;-69
2022/10/08 05:49:23;;;;;;;20.47;16.07;;;12.40;99.90;;;;;;5134791;27;20178;-69
2022/10/08 05:51:49;;;;;;;19.97;15.10;;;12.40;99.90;;;;;;5116339;28;20258;-69
2022/10/08 05:54:16;;;;;;;30.83;20.60;;;12.50;99.90;;;;;;5134680;27;20627;-68
2022/10/08 05:56:42;;;;;;;31.87;20.60;;;12.50;99.90;;;;;;5134797;27;20862;-69
2022/10/08 05:59:16;;;;;;;22.67;16.80;;;12.60;99.90;;;;;;5134672;27;20464;-69
2022/10/08 06:01:42;;;;;;;57.27;27.70;;;12.70;99.90;;;;;;5134602;28;20839;-69
2022/10/08 06:04:10;;;;;;;45.97;23.00;;;12.70;99.90;;;;;;5127774;27;20431;-69
2022/10/08 06:06:37;;;;;;;42.43;24.30;;;12.80;99.90;;;;;;5137235;27;20210;-69
2022/10/08 06:09:03;;;;;;;50.97;28.13;;;12.90;99.90;;;;;;5120645;27;20426;-69
2022/10/08 06:11:32;;;;;;;29.90;20.67;;;13.00;99.90;;;;;;5138763;27;20481;-69
2022/10/08 06:13:59;;;;;;;20.30;14.27;;;13.00;99.90;;;;;;5120478;27;20503;-68
2022/10/08 06:16:25;;;;;;;17.03;14.17;;;13.10;99.90;;;;;;5138769;27;20400;-69
2022/10/08 06:18:51;;;;;;;14.97;12.30;;;13.20;99.90;;;;;;5139243;27;20419;-69
2022/10/08 06:21:20;;;;;;;17.60;12.80;;;13.20;99.90;;;;;;5138557;27;20442;-68
2022/10/08 06:23:51;;;;;;;15.43;11.57;;;13.30;99.90;;;;;;5138705;27;20226;-69
2022/10/08 06:26:17;;;;;;;13.23;10.60;;;13.40;99.90;;;;;;5138469;27;20974;-69
2022/10/08 06:28:44;;;;;;;13.60;11.33;;;13.50;99.90;;;;;;5119972;27;20439;-69
2022/10/08 06:31:10;;;;;;;16.13;10.30;;;13.60;99.90;;;;;;5120061;27;20401;-69
2022/10/08 06:33:36;;;;;;;17.63;11.40;;;13.60;99.90;;;;;;5138874;27;20427;-69
2022/10/08 06:36:11;;;;;;;20.07;12.33;;;13.70;99.90;;;;;;5138293;27;20975;-69
2022/10/08 06:38:36;;;;;;;16.23;10.20;;;13.80;99.90;;;;;;5120128;27;20182;-69
2022/10/08 06:41:02;;;;;;;14.57;10.40;;;13.90;99.90;;;;;;5138142;27;20429;-69
2022/10/08 06:43:28;;;;;;;12.03;10.80;;;14.00;99.90;;;;;;5120057;27;20178;-69
2022/10/08 06:45:55;;;;;;;12.67;10.93;;;14.10;99.90;;;;;;5119602;27;20210;-69
2022/10/08 06:48:21;;;;;;;11.80;10.60;;;14.10;99.90;;;;;;5120183;27;20202;-69
2022/10/08 06:50:46;;;;;;;15.90;10.53;;;14.20;99.90;;;;;;5138116;27;20423;-69
2022/10/08 06:53:12;;;;;;;15.00;10.43;;;14.30;99.90;;;;;;5138277;27;20517;-69
2022/10/08 06:55:37;;;;;;;11.30;10.10;;;14.40;99.90;;;;;;5138063;27;20187;-69
2022/10/08 06:58:04;;;;;;;12.77;10.37;;;14.50;99.90;;;;;;5137952;27;20185;-69
2022/10/08 07:00:31;;;;;;;11.90;9.73;;;14.60;99.90;;;;;;5137892;27;20194;-69
2022/10/08 07:02:57;;;;;;;12.20;9.53;;;14.60;99.90;;;;;;5119569;27;20415;-69
2022/10/08 07:05:23;;;;;;;13.63;10.53;;;14.70;99.90;;;;;;5137698;27;20421;-69
2022/10/08 07:07:49;;;;;;;13.50;10.00;;;14.90;99.90;;;;;;5138004;27;20433;-69
2022/10/08 07:10:15;;;;;;;12.50;8.93;;;15.00;99.90;;;;;;5119265;27;20411;-69
2022/10/08 07:12:41;;;;;;;11.73;10.53;;;15.10;99.90;;;;;;5119313;27;20427;-69
2022/10/08 07:15:07;;;;;;;19.77;9.80;;;15.20;99.90;;;;;;5119181;27;20423;-69
2022/10/08 07:17:32;;;;;;;12.63;10.90;;;15.30;99.90;;;;;;5119051;27;20191;-69
2022/10/08 07:19:58;;;;;;;13.10;10.40;;;15.50;99.90;;;;;;5137502;27;21010;-69
2022/10/08 07:22:24;;;;;;;12.40;8.90;;;15.60;99.90;;;;;;5137438;27;20179;-69
2022/10/08 07:24:50;;;;;;;13.40;10.03;;;15.70;99.90;;;;;;5137354;27;20576;-69
2022/10/08 07:27:17;;;;;;;11.50;10.30;;;15.90;99.90;;;;;;5137270;27;20226;-69
2022/10/08 07:29:42;;;;;;;13.60;10.70;;;16.00;99.90;;;;;;5137335;27;20427;-69
2022/10/08 07:32:08;;;;;;;17.17;11.07;;;16.10;99.90;;;;;;5118952;27;20422;-70
2022/10/08 07:34:33;;;;;;;14.13;10.30;;;16.20;99.90;;;;;;5137321;27;20195;-69
2022/10/08 07:36:59;;;;;;;14.87;10.23;;;16.30;99.90;;;;;;5118793;27;20624;-69
2022/10/08 07:39:25;;;;;;;11.87;9.77;;;16.40;99.90;;;;;;5137249;27;20175;-69
2022/10/08 07:41:50;;;;;;;15.83;10.93;;;16.60;99.90;;;;;;5137094;27;20627;-69
2022/10/08 07:44:16;;;;;;;13.30;10.57;;;16.80;99.90;;;;;;5137030;27;20423;-69
2022/10/08 07:46:47;;;;;;;14.00;10.57;;;16.90;99.90;;;;;;5136982;27;20286;-69
2022/10/08 07:49:14;;;;;;;12.37;9.47;;;17.20;99.90;;;;;;5118614;27;20182;-69
2022/10/08 07:51:42;;;;;;;11.13;8.73;;;17.50;99.90;;;;;;5137021;27;20954;-69
2022/10/08 07:54:13;;;;;;;10.40;9.30;;;18.00;99.90;;;;;;5118598;27;20407;-69
2022/10/08 07:56:38;;;;;;;10.57;9.33;;;18.50;99.90;;;;;;5137054;27;20963;-69
2022/10/08 07:59:04;;;;;;;11.03;8.60;;;19.20;99.90;;;;;;5137199;27;20448;-69
2022/10/08 08:01:32;;;;;;;9.97;7.33;;;20.00;99.90;;;;;;5118222;27;20325;-69
2022/10/08 08:04:03;;;;;;;8.47;7.60;;;20.80;99.90;;;;;;5118411;27;20437;-69
2022/10/08 08:06:31;;;;;;;8.57;7.37;;;21.80;99.90;;;;;;5118074;27;20470;-69
2022/10/08 08:08:59;;;;;;;8.87;7.27;;;22.90;99.90;;;;;;5137183;27;20920;-69
2022/10/08 08:11:25;;;;;;;7.23;6.53;;;23.70;99.90;;;;;;5136504;27;20483;-69
2022/10/08 08:13:51;;;;;;;7.70;6.80;;;24.40;99.90;;;;;;5118260;27;20463;-69
2022/10/08 08:16:19;;;;;;;8.73;7.10;;;25.10;99.90;;;;;;5117867;27;20427;-69
2022/10/08 08:18:48;;;;;;;12.03;8.10;;;25.60;99.90;;;;;;5136867;27;20565;-69
2022/10/08 08:21:16;;;;;;;8.80;8.00;;;26.00;99.90;;;;;;5117830;27;20441;-69
2022/10/08 08:23:45;;;;;;;7.90;7.10;;;26.30;99.90;;;;;;5136202;27;20953;-70
2022/10/08 08:26:17;;;;;;;7.83;7.13;;;26.60;99.90;;;;;;5136141;27;20465;-70
2022/10/08 08:28:43;;;;;;;8.60;7.20;;;26.90;99.90;;;;;;5136249;27;20733;-69
2022/10/08 08:31:14;;;;;;;10.43;7.33;;;27.30;99.90;;;;;;5136104;27;20430;-70
2022/10/08 08:33:41;;;;;;;9.37;7.73;;;27.60;99.90;;;;;;5136641;27;20232;-69
2022/10/08 08:36:07;;;;;;;9.77;8.13;;;27.90;99.90;;;;;;5135983;27;20429;-69
2022/10/08 08:38:34;;;;;;;9.70;7.00;;;28.20;99.90;;;;;;5117783;27;20453;-69
2022/10/08 08:41:32;;;;;;;10.97;7.67;;;28.10;99.90;;;;;;5117525;27;20832;-69
2022/10/08 08:44:00;;;;;;;8.13;6.73;;;27.70;99.70;;;;;;5116578;27;20466;-70
2022/10/08 08:46:31;;;;;;;8.60;7.27;;;27.30;99.90;;;;;;5135771;27;20490;-70
2022/10/08 08:49:03;;;;;;;8.23;7.40;;;26.80;99.90;;;;;;5117612;27;20429;-69
2022/10/08 08:51:29;;;;;;;12.50;8.07;;;26.10;99.90;;;;;;5117412;27;20934;-69
2022/10/08 08:53:56;;;;;;;8.20;7.30;;;25.50;99.90;;;;;;5117253;27;20426;-69
2022/10/08 08:56:23;;;;;;;10.40;9.30;;;25.00;99.90;;;;;;5135651;27;20880;-69
2022/10/08 08:59:11;;;;;;;9.43;8.00;;;24.40;99.90;;;;;;5117404;27;20445;-69
2022/10/08 09:01:42;;;;;;;10.43;8.33;;;23.80;99.90;;;;;;5117234;27;20836;-69
2022/10/08 09:04:39;;;;;;;9.13;7.87;;;23.30;99.90;;;;;;5136016;27;20544;-69
2022/10/08 09:07:10;;;;;;;9.63;8.40;;;23.00;99.90;;;;;;5116967;27;20537;-69
2022/10/08 09:09:42;;;;;;;12.73;8.07;;;22.80;99.90;;;;;;5116957;27;20440;-69
2022/10/08 09:12:16;;;;;;;9.20;8.30;;;22.70;99.90;;;;;;5135501;27;20884;-69
2022/10/08 09:14:55;;;;;;;11.57;8.50;;;22.40;99.90;;;;;;5135461;27;20417;-69
2022/10/08 09:17:34;;;;;;;11.53;8.20;;;22.20;99.90;;;;;;5135614;27;20415;-69
2022/10/08 09:20:00;;;;;;;10.93;8.30;;;22.10;99.90;;;;;;5135156;27;20434;-69
2022/10/08 09:22:29;;;;;;;9.23;7.80;;;22.00;99.90;;;;;;5135041;27;20423;-69
2022/10/08 09:25:27;;;;;;;7.73;7.03;;;21.90;99.90;;;;;;5135097;27;20471;-69
2022/10/08 09:27:59;;;;;;;9.57;8.10;;;21.70;99.90;;;;;;5108866;27;20438;-69
2022/10/08 09:30:28;;;;;;;7.40;6.70;;;21.70;99.90;;;;;;5135332;27;20965;-69
2022/10/08 09:32:57;;;;;;;10.47;7.70;;;21.60;99.90;;;;;;5116658;27;20459;-69
2022/10/08 09:35:23;;;;;;;8.83;7.30;;;21.60;99.90;;;;;;5134940;27;20419;-69
2022/10/08 09:37:50;;;;;;;8.90;7.60;;;21.50;99.90;;;;;;5134861;27;20426;-69
2022/10/08 09:40:26;;;;;;;7.93;7.23;;;21.50;99.90;;;;;;5115553;27;20442;-69
2022/10/08 09:43:21;;;;;;;8.80;7.90;;;21.40;99.90;;;;;;5135183;27;20423;-69
2022/10/08 09:45:48;;;;;;;7.60;6.83;;;21.40;99.90;;;;;;5095199;28;20974;-69
2022/10/08 09:48:23;;;;;;;9.87;8.20;;;21.40;99.90;;;;;;5116517;27;20774;-69
2022/10/08 09:50:56;;;;;;;7.70;6.90;;;21.30;99.90;;;;;;5116379;27;20517;-69
2022/10/08 09:53:27;;;;;;;8.13;6.83;;;21.30;99.90;;;;;;5135108;27;20419;-69
2022/10/08 09:56:05;;;;;;;8.50;7.60;;;21.30;99.90;;;;;;5134750;27;20492;-69
2022/10/08 09:58:32;;;;;;;8.20;7.27;;;21.30;99.90;;;;;;5116470;27;20427;-69
2022/10/08 10:01:13;;;;;;;8.60;7.70;;;21.30;99.90;;;;;;5116263;28;20427;-69
2022/10/08 10:03:46;;;;;;;11.57;8.17;;;21.30;99.90;;;;;;5135157;28;20805;-69
2022/10/08 10:06:11;;;;;;;8.50;6.83;;;21.30;99.90;;;;;;5134412;27;20466;-69
2022/10/08 10:08:53;;;;;;;8.40;7.60;;;21.30;99.90;;;;;;5116301;28;20777;-69
2022/10/08 10:11:51;;;;;;;7.90;7.10;;;21.30;99.90;;;;;;5134597;27;20608;-69
2022/10/08 10:14:25;;;;;;;7.83;6.90;;;21.30;99.90;;;;;;5129129;27;20428;-70
2022/10/08 10:17:10;;;;;;;8.40;7.50;;;21.30;99.90;;;;;;5116110;28;20947;-70
2022/10/08 10:19:51;;;;;;;10.43;7.47;;;21.30;99.90;;;;;;5116088;28;20931;-70
2022/10/08 10:22:41;;;;;;;7.80;6.53;;;21.30;99.90;;;;;;5134172;28;20435;-69
2022/10/08 10:25:39;;;;;;;10.87;7.83;;;21.30;99.90;;;;;;5064727;28;20793;-69
2022/10/08 10:28:15;;;;;;;7.60;6.43;;;21.30;99.90;;;;;;5134753;28;20942;-69
2022/10/08 10:30:58;;;;;;;8.50;6.77;;;21.30;99.90;;;;;;5134385;27;20407;-69
2022/10/08 10:33:28;;;;;;;8.03;7.20;;;21.40;99.90;;;;;;5116200;28;20437;-69
2022/10/08 10:35:59;;;;;;;7.20;6.50;;;21.40;99.90;;;;;;5115834;28;20422;-69
2022/10/08 10:38:31;;;;;;;8.70;7.50;;;21.40;99.90;;;;;;5134640;28;20419;-69
2022/10/08 10:41:16;;;;;;;8.00;7.20;;;21.50;99.90;;;;;;5134301;27;20472;-69
2022/10/08 10:44:09;;;;;;;9.77;8.53;;;21.50;99.90;;;;;;5134454;28;20525;-69
2022/10/08 10:46:44;;;;;;;7.60;6.90;;;21.50;99.90;;;;;;5134110;28;20505;-69
2022/10/08 10:49:17;;;;;;;8.03;6.87;;;21.40;99.90;;;;;;5134041;27;20391;-69
2022/10/08 10:51:51;;;;;;;7.93;7.20;;;21.40;99.90;;;;;;5117478;27;20509;-69
2022/10/08 10:54:25;;;;;;;9.20;7.50;;;21.40;99.90;;;;;;5138022;27;20896;-70
2022/10/08 10:56:55;;;;;;;12.30;7.37;;;21.50;99.90;;;;;;5137949;27;20396;-70
2022/10/08 10:59:47;;;;;;;7.57;6.87;;;21.50;99.90;;;;;;5119592;27;20414;-70
2022/10/08 11:02:44;;;;;;;8.13;7.23;;;21.60;99.90;;;;;;5137774;27;20408;-69
2022/10/08 11:05:26;;;;;;;8.80;6.37;;;21.60;99.90;;;;;;5137889;27;20419;-71
2022/10/08 11:08:10;;;;;;;9.10;6.87;;;21.60;99.90;;;;;;5118945;27;20858;-69
2022/10/08 11:10:51;;;;;;;7.00;6.43;;;21.70;99.90;;;;;;5119344;27;20427;-69
2022/10/08 11:13:20;;;;;;;7.23;6.47;;;21.70;99.90;;;;;;5137792;27;20412;-70
2022/10/08 11:16:00;;;;;;;7.83;7.07;;;21.80;99.90;;;;;;5119042;27;20839;-70
2022/10/08 11:18:48;;;;;;;8.70;6.80;;;21.80;99.90;;;;;;5137707;27;20792;-70
2022/10/08 11:21:32;;;;;;;7.03;6.43;;;21.90;99.90;;;;;;5136740;27;20427;-70
2022/10/08 11:24:27;;;;;;;7.83;6.30;;;21.90;99.90;;;;;;5136929;27;20549;-71
2022/10/08 11:27:13;;;;;;;8.47;7.57;;;21.90;99.90;;;;;;5118668;27;20458;-69
2022/10/08 11:29:44;;;;;;;8.50;7.60;;;22.00;99.90;;;;;;5118086;27;20491;-69
2022/10/08 11:32:13;;;;;;;9.17;6.93;;;22.00;99.90;;;;;;5137082;27;20420;-70
2022/10/08 11:34:48;;;;;;;9.93;7.10;;;22.00;99.90;;;;;;5136510;27;20935;-72
2022/10/08 11:37:19;;;;;;;8.73;7.10;;;22.00;99.90;;;;;;5135260;27;20397;-71
2022/10/08 11:39:45;;;;;;;8.00;7.00;;;22.00;99.90;;;;;;5136017;27;20438;-69
2022/10/08 11:42:27;;;;;;;8.83;7.17;;;21.90;99.90;;;;;;5136319;27;20411;-71
2022/10/08 11:44:53;;;;;;;8.10;7.20;;;21.90;99.90;;;;;;5117390;27;20202;-72
2022/10/08 11:47:34;;;;;;;8.53;7.43;;;21.90;99.90;;;;;;5135834;27;20919;-72
2022/10/08 11:50:01;;;;;;;8.07;7.20;;;21.90;99.90;;;;;;5117390;27;20209;-72
2022/10/08 11:52:29;;;;;;;9.97;7.77;;;22.00;99.90;;;;;;5135511;27;20536;-69
2022/10/08 11:54:56;;;;;;;9.57;8.00;;;22.00;99.90;;;;;;5116895;27;20439;-72
2022/10/08 11:57:32;;;;;;;7.93;7.23;;;22.00;99.90;;;;;;5134461;27;20479;-72
2022/10/08 12:00:01;;;;;;;9.23;7.97;;;22.10;99.90;;;;;;5134519;27;20956;-72
2022/10/08 12:02:31;;;;;;;8.43;7.63;;;22.10;99.90;;;;;;5116750;28;20471;-72
2022/10/08 12:05:22;;;;;;;8.20;7.40;;;22.10;99.90;;;;;;5136269;27;20426;-69
2022/10/08 12:07:49;;;;;;;7.07;6.37;;;22.10;99.90;;;;;;5135348;27;20427;-73
2022/10/08 12:10:17;;;;;;;8.20;7.30;;;22.10;99.90;;;;;;5117638;27;20455;-72
2022/10/08 12:12:49;;;;;;;9.23;7.67;;;22.10;99.90;;;;;;5135480;27;20438;-71
2022/10/08 12:15:26;;;;;;;9.03;7.00;;;22.10;99.90;;;;;;5136010;27;20443;-69
2022/10/08 12:18:22;;;;;;;9.13;7.77;;;22.10;99.90;;;;;;5117752;27;20790;-69
2022/10/08 12:21:16;;;;;;;9.63;7.03;;;22.10;99.90;;;;;;5117310;27;20489;-69
2022/10/08 12:23:43;;;;;;;9.83;7.47;;;22.10;99.90;;;;;;5134553;27;20482;-71
2022/10/08 12:26:11;;;;;;;10.77;7.47;;;22.10;99.90;;;;;;5116407;27;20522;-69
2022/10/08 12:28:37;;;;;;;9.93;8.47;;;22.10;99.90;;;;;;5116045;27;20502;-73
2022/10/08 12:31:22;;;;;;;9.00;6.47;;;22.10;99.90;;;;;;5116141;27;20432;-73
2022/10/08 12:34:12;;;;;;;8.13;7.33;;;22.10;99.90;;;;;;5135172;27;20424;-72
2022/10/08 12:36:49;;;;;;;8.53;7.60;;;22.20;99.90;;;;;;5135085;27;20923;-72
2022/10/08 12:39:36;;;;;;;9.90;8.13;;;22.20;99.90;;;;;;5135146;27;20465;-68
2022/10/08 12:42:26;;;;;;;7.33;6.60;;;22.20;99.90;;;;;;5115731;27;20418;-70
2022/10/08 12:45:20;;;;;;;8.30;7.40;;;22.20;99.90;;;;;;5133334;27;20863;-71
2022/10/08 12:47:58;;;;;;;9.67;8.17;;;22.20;99.90;;;;;;5134360;27;20596;-71
2022/10/08 12:50:32;;;;;;;12.83;7.27;;;22.30;99.90;;;;;;5134826;27;20419;-71
2022/10/08 12:53:07;;;;;;;8.70;7.80;;;22.30;99.90;;;;;;5115751;27;20447;-69
2022/10/08 12:55:42;;;;;;;9.87;7.50;;;22.30;99.90;;;;;;5135420;27;20909;-72
2022/10/08 12:58:19;;;;;;;11.63;7.40;;;22.30;99.90;;;;;;5133251;27;20430;-70